aviador You're here:

YPXM Decoded Metar

CHRISTMAS ISLAND in CHRISTMAS ISLAND
Report Time2017-08-18 10:30:00
UTC Time2017-08-18 10:50:19
Flight Rules mvfr MVFR
Wind130° at 15 kt
W.Decomp.*RWY 18: 9.4 kt HW 11.7 kt LCW
W.Rank130° ranks 1
Current wind is above 130° avg. (9.2)
Visibility9999 m
Phenomena:N/A
Clouds:Broken 017 Hf
Overcast 026 Hf
Expected CloudBase > 1,600 ft AGL from Temp-Dew spread
Ceiling1,700 ft
Temp23°C (ISA +10)
Dew Point19°C (78% RH)
AAT20.8°C
QNH1014 hPa
Density Alt2,234 ft
Elevation850 ft
Report Wrong Elevation
Raw Report
YPXM 181030Z AUTO 13015KT 9999 // BKN017 OVC026 23/19 Q1014=

Extra information for YPXM:More info

Metar Taf Metar & Taf Last 4 Metars F.Rules Stats Wind Profile Meteogram Temp Stats Airport Information Weather charts Add Link Nearby VenuesMetar ALERT Operation Metar Decoded Social comments